createdAt,value
2023-02-20T00:00:02.471Z,19.50
2023-02-20T00:01:02.468Z,19.51
2023-02-20T00:02:02.452Z,19.50
2023-02-20T00:03:02.430Z,19.51
2023-02-20T00:04:02.414Z,19.51
2023-02-20T00:05:02.468Z,19.50
2023-02-20T00:06:02.380Z,19.51
2023-02-20T00:07:02.359Z,19.51
2023-02-20T00:08:02.358Z,19.51
2023-02-20T00:09:02.536Z,19.50
2023-02-20T00:10:02.320Z,19.50
2023-02-20T00:11:02.303Z,19.50
2023-02-20T00:12:02.278Z,19.50
2023-02-20T00:13:02.256Z,19.50
2023-02-20T00:14:02.236Z,19.51
2023-02-20T00:15:02.215Z,19.50
2023-02-20T00:16:02.265Z,19.50
2023-02-20T00:17:02.189Z,19.50
2023-02-20T00:18:02.140Z,19.51
2023-02-20T00:19:02.122Z,19.51
2023-02-20T00:20:02.097Z,19.50
2023-02-20T00:21:02.069Z,19.50
2023-02-20T00:22:02.034Z,19.50
2023-02-20T00:23:02.025Z,19.50
2023-02-20T00:24:02.002Z,19.50
2023-02-20T00:25:01.972Z,19.50
2023-02-20T00:26:01.940Z,19.50
2023-02-20T00:27:01.917Z,19.50
2023-02-20T00:28:01.926Z,19.50
2023-02-20T00:29:01.951Z,19.49
2023-02-20T00:30:02.568Z,19.50
2023-02-20T00:31:01.955Z,19.50
2023-02-20T00:32:01.845Z,19.50
2023-02-20T00:33:01.813Z,19.50
2023-02-20T00:34:01.773Z,19.50
2023-02-20T00:35:01.748Z,19.50
2023-02-20T00:36:01.726Z,19.49
2023-02-20T00:37:01.706Z,19.50
2023-02-20T00:38:01.701Z,19.50
2023-02-20T00:39:01.668Z,19.49
2023-02-20T00:40:01.642Z,19.50
2023-02-20T00:41:01.632Z,19.50
2023-02-20T00:42:01.593Z,19.50
2023-02-20T00:43:01.640Z,19.50
2023-02-20T00:44:01.547Z,19.50
2023-02-20T00:45:01.529Z,19.50
2023-02-20T00:46:01.537Z,19.50
2023-02-20T00:47:01.483Z,19.50
2023-02-20T00:48:01.450Z,19.50
2023-02-20T00:49:01.431Z,19.50
2023-02-20T00:50:01.418Z,19.50
2023-02-20T00:51:01.410Z,19.50
2023-02-20T00:52:01.385Z,19.49
2023-02-20T00:53:01.366Z,19.50
2023-02-20T00:54:01.340Z,19.50
2023-02-20T00:55:01.319Z,19.49
2023-02-20T00:56:01.317Z,19.51
2023-02-20T00:57:01.305Z,19.50
2023-02-20T00:58:02.156Z,19.50
2023-02-20T00:59:01.282Z,19.50
2023-02-20T01:00:01.254Z,19.50
2023-02-20T01:01:01.231Z,19.50
2023-02-20T01:02:01.292Z,19.50
2023-02-20T01:03:01.283Z,19.51
2023-02-20T01:04:01.172Z,19.50
2023-02-20T01:05:01.157Z,19.50
2023-02-20T01:06:01.133Z,19.50
2023-02-20T01:07:01.111Z,19.50
2023-02-20T01:08:01.083Z,19.50
2023-02-20T01:09:01.067Z,19.50
2023-02-20T01:10:01.054Z,19.50
2023-02-20T01:11:01.018Z,19.50
2023-02-20T01:12:01.009Z,19.50
2023-02-20T01:13:00.991Z,19.50
2023-02-20T01:14:00.965Z,19.51
2023-02-20T01:15:01.118Z,19.51
2023-02-20T01:46:00.235Z,19.51
2023-02-20T01:47:00.299Z,19.51
2023-02-20T01:49:00.171Z,19.50
2023-02-20T01:50:00.139Z,19.51
2023-02-20T01:51:00.143Z,19.51
2023-02-20T01:52:00.113Z,19.50
2023-02-20T01:53:00.176Z,19.51
2023-02-20T01:54:00.090Z,19.50
2023-02-20T01:55:00.051Z,19.51
2023-02-20T01:56:00.086Z,19.51
2023-02-20T01:57:00.022Z,19.50
2023-02-20T01:57:59.998Z,19.51
2023-02-20T01:58:59.971Z,19.51
2023-02-20T01:59:59.962Z,19.51
2023-02-20T02:00:59.969Z,19.51
2023-02-20T02:01:59.933Z,19.51
2023-02-20T02:02:59.894Z,19.51
2023-02-20T02:03:59.866Z,19.51
2023-02-20T02:04:59.853Z,19.51
2023-02-20T02:05:59.817Z,19.51
2023-02-20T02:06:59.800Z,19.51
2023-02-20T02:07:59.781Z,19.51
2023-02-20T02:09:00.522Z,19.51
2023-02-20T02:09:59.721Z,19.52
2023-02-20T02:10:59.692Z,19.52
2023-02-20T02:11:59.661Z,19.51
2023-02-20T02:12:59.637Z,19.51
2023-02-20T02:13:59.615Z,19.50
2023-02-20T02:14:59.592Z,19.51
2023-02-20T02:15:59.586Z,19.50
2023-02-20T02:16:59.532Z,19.51
2023-02-20T02:17:59.516Z,19.51
2023-02-20T02:18:59.484Z,19.51
2023-02-20T02:19:59.469Z,19.51
2023-02-20T02:20:59.456Z,19.50
2023-02-20T02:21:59.448Z,19.51
2023-02-20T02:22:59.466Z,19.51
2023-02-20T02:23:59.458Z,19.51
2023-02-20T02:24:59.454Z,19.51
2023-02-20T02:25:59.450Z,19.51
2023-02-20T02:26:59.419Z,19.51
2023-02-20T02:27:59.429Z,19.51
2023-02-20T02:28:59.382Z,19.51
2023-02-20T02:29:59.355Z,19.51
2023-02-20T02:30:59.368Z,19.51
2023-02-20T02:31:59.328Z,19.51
2023-02-20T02:32:59.297Z,19.51
2023-02-20T02:33:59.271Z,19.52
2023-02-20T02:34:59.251Z,19.51
2023-02-20T02:35:59.246Z,19.51
2023-02-20T02:36:59.215Z,19.51
2023-02-20T02:37:59.208Z,19.52
2023-02-20T02:38:59.205Z,19.51
2023-02-20T02:39:59.184Z,19.51
2023-02-20T02:40:59.179Z,19.52
2023-02-20T02:41:59.159Z,19.51
2023-02-20T02:42:59.128Z,19.51
2023-02-20T02:43:59.134Z,19.51
2023-02-20T02:44:59.099Z,19.51
2023-02-20T02:45:59.118Z,19.52
2023-02-20T02:46:59.059Z,19.52
2023-02-20T02:47:59.032Z,19.52
2023-02-20T02:48:59.022Z,19.52
2023-02-20T02:49:59.028Z,19.51
2023-02-20T02:50:59.039Z,19.52
2023-02-20T02:51:59.058Z,19.52
2023-02-20T02:52:59.027Z,19.52
2023-02-20T02:53:59.013Z,19.52
2023-02-20T02:54:59.025Z,19.53
2023-02-20T02:55:59.036Z,19.52
2023-02-20T02:56:59.062Z,19.53
2023-02-20T02:57:59.062Z,19.52
2023-02-20T02:58:59.059Z,19.52
2023-02-20T02:59:59.065Z,19.52
2023-02-20T03:00:59.167Z,19.52
2023-02-20T03:01:59.057Z,19.52
2023-02-20T03:02:59.042Z,19.53
2023-02-20T03:03:59.047Z,19.52
2023-02-20T03:04:59.071Z,19.52
2023-02-20T03:05:59.057Z,19.52
2023-02-20T03:06:59.050Z,19.52
2023-02-20T03:07:59.057Z,19.53
2023-02-20T03:08:59.034Z,19.52
2023-02-20T03:09:59.022Z,19.52
2023-02-20T03:10:59.017Z,19.52
2023-02-20T03:11:59.021Z,19.52
2023-02-20T03:12:59.021Z,19.52
2023-02-20T03:13:59.034Z,19.52
2023-02-20T03:14:59.029Z,19.53
2023-02-20T03:15:59.063Z,19.53
2023-02-20T03:16:59.038Z,19.53
2023-02-20T03:17:59.083Z,19.52
2023-02-20T03:19:00.015Z,19.53
2023-02-20T03:19:58.994Z,19.53
2023-02-20T03:20:58.978Z,19.52
2023-02-20T03:21:58.946Z,19.53
2023-02-20T03:22:58.918Z,19.52
2023-02-20T03:23:58.931Z,19.53
2023-02-20T03:24:58.895Z,19.53
2023-02-20T03:25:58.880Z,19.52
2023-02-20T03:26:58.869Z,19.52
2023-02-20T03:27:59.525Z,19.52
2023-02-20T03:28:58.851Z,19.52
2023-02-20T03:29:58.857Z,19.53
2023-02-20T03:30:58.870Z,19.52
2023-02-20T03:31:58.890Z,19.53
2023-02-20T03:32:58.764Z,19.52
2023-02-20T03:33:58.751Z,19.52
2023-02-20T03:34:58.735Z,19.52
2023-02-20T03:35:58.726Z,19.53
2023-02-20T03:36:58.713Z,19.52
2023-02-20T03:37:58.672Z,19.52
2023-02-20T03:38:58.648Z,19.53
2023-02-20T03:39:58.635Z,19.52
2023-02-20T03:40:58.608Z,19.53
2023-02-20T03:41:58.605Z,19.53
2023-02-20T03:42:58.607Z,19.53
2023-02-20T03:43:58.651Z,19.52
2023-02-20T03:44:58.626Z,19.53
2023-02-20T03:45:58.615Z,19.52
2023-02-20T03:46:58.591Z,19.52
2023-02-20T03:47:58.564Z,19.53
2023-02-20T03:48:58.548Z,19.52
2023-02-20T03:49:58.551Z,19.52
2023-02-20T03:50:58.527Z,19.53
2023-02-20T03:51:58.529Z,19.52
2023-02-20T03:52:58.499Z,19.52
2023-02-20T03:53:58.478Z,19.53
2023-02-20T03:54:58.479Z,19.52
2023-02-20T03:55:58.472Z,19.52
2023-02-20T03:56:58.463Z,19.53
2023-02-20T03:57:58.450Z,19.53
2023-02-20T03:58:58.440Z,19.52
2023-02-20T03:59:58.439Z,19.53
2023-02-20T04:00:58.467Z,19.52
2023-02-20T04:01:58.517Z,19.53
2023-02-20T04:02:58.457Z,19.52
2023-02-20T04:03:58.524Z,19.52
2023-02-20T04:04:58.571Z,19.52
2023-02-20T04:05:58.606Z,19.52
2023-02-20T04:06:58.603Z,19.52
2023-02-20T04:07:58.658Z,19.52
2023-02-20T04:08:58.620Z,19.52
2023-02-20T04:09:58.623Z,19.52
2023-02-20T04:10:58.676Z,19.52
2023-02-20T04:11:58.613Z,19.51
2023-02-20T04:12:58.622Z,19.51
2023-02-20T04:13:58.636Z,19.51
2023-02-20T04:14:58.662Z,19.52
2023-02-20T04:15:58.700Z,19.52
2023-02-20T04:16:58.707Z,19.52
2023-02-20T04:17:58.716Z,19.52
2023-02-20T04:18:58.698Z,19.52
2023-02-20T04:19:58.694Z,19.51
2023-02-20T04:20:58.692Z,19.51
2023-02-20T04:21:58.704Z,19.52
2023-02-20T04:22:58.713Z,19.52
2023-02-20T04:23:58.719Z,19.52
2023-02-20T04:24:58.724Z,19.52
2023-02-20T04:25:58.701Z,19.52
2023-02-20T04:26:58.703Z,19.52
2023-02-20T04:27:58.684Z,19.52
2023-02-20T04:28:58.656Z,19.52
2023-02-20T04:29:58.686Z,19.52
2023-02-20T04:30:58.718Z,19.52
2023-02-20T04:31:58.644Z,19.52
2023-02-20T04:32:58.594Z,19.52
2023-02-20T04:33:58.583Z,19.52
2023-02-20T04:34:58.565Z,19.52
2023-02-20T04:35:58.597Z,19.52
2023-02-20T04:36:58.532Z,19.52
2023-02-20T04:37:58.520Z,19.52
2023-02-20T04:38:58.493Z,19.52
2023-02-20T04:39:58.480Z,19.52
2023-02-20T04:40:58.462Z,19.52
2023-02-20T04:41:58.452Z,19.53
2023-02-20T04:42:58.450Z,19.53
2023-02-20T04:43:58.438Z,19.52
2023-02-20T04:44:58.411Z,19.52
2023-02-20T04:45:58.412Z,19.52
2023-02-20T04:46:58.382Z,19.52
2023-02-20T04:47:58.353Z,19.52
2023-02-20T04:48:58.330Z,19.52
2023-02-20T04:49:58.307Z,19.52
2023-02-20T04:50:58.294Z,19.52
2023-02-20T04:51:58.274Z,19.52
2023-02-20T04:52:58.269Z,19.52
2023-02-20T04:53:58.235Z,19.53
2023-02-20T04:54:58.200Z,19.52
2023-02-20T04:55:58.174Z,19.52
2023-02-20T04:56:58.152Z,19.53
2023-02-20T04:57:58.164Z,19.52
2023-02-20T04:58:58.140Z,19.52
2023-02-20T04:59:58.191Z,19.53
2023-02-20T05:00:58.105Z,19.52
2023-02-20T05:01:58.100Z,19.53
2023-02-20T05:02:58.164Z,19.53
2023-02-20T05:03:58.056Z,19.53
2023-02-20T05:04:58.048Z,19.53
2023-02-20T05:05:58.049Z,19.53
2023-02-20T05:06:58.021Z,19.52
2023-02-20T05:07:58.006Z,19.52
2023-02-20T05:08:58.041Z,19.53
2023-02-20T05:09:57.979Z,19.53
2023-02-20T05:10:57.970Z,19.53
2023-02-20T05:11:57.938Z,19.53
2023-02-20T05:12:57.914Z,19.53
2023-02-20T05:13:57.901Z,19.53
2023-02-20T05:14:57.916Z,19.53
2023-02-20T05:15:57.994Z,19.53
2023-02-20T05:16:57.950Z,19.54
2023-02-20T05:17:57.953Z,19.53
2023-02-20T05:18:57.958Z,19.53
2023-02-20T05:19:57.963Z,19.53
2023-02-20T05:20:57.956Z,19.54
2023-02-20T05:21:57.958Z,19.53
2023-02-20T05:22:57.945Z,19.54
2023-02-20T05:23:57.919Z,19.54
2023-02-20T05:24:57.905Z,19.54
2023-02-20T05:25:57.893Z,19.54
2023-02-20T05:26:57.880Z,19.53
2023-02-20T05:27:57.904Z,19.54
2023-02-20T05:28:57.894Z,19.54
2023-02-20T05:29:57.872Z,19.53
2023-02-20T05:30:57.882Z,19.53
2023-02-20T05:31:57.874Z,19.53
2023-02-20T05:32:57.850Z,19.53
2023-02-20T05:33:57.905Z,19.53
2023-02-20T05:34:57.916Z,19.53
2023-02-20T05:35:57.827Z,19.54
2023-02-20T05:36:57.844Z,19.53
2023-02-20T05:37:57.836Z,19.53
2023-02-20T05:38:57.832Z,19.52
2023-02-20T05:39:57.817Z,19.53
2023-02-20T06:08:57.998Z,19.53
2023-02-20T06:37:58.505Z,19.76
2023-02-20T06:42:58.554Z,19.72
2023-02-20T07:26:56.356Z,19.63
2023-02-20T07:27:56.346Z,19.66
2023-02-20T07:28:56.305Z,19.68
2023-02-20T07:29:56.329Z,19.67
2023-02-20T07:30:56.250Z,19.67
2023-02-20T07:38:57.011Z,19.61
2023-02-20T08:29:57.447Z,19.68
2023-02-20T08:33:56.481Z,19.66
2023-02-20T09:14:56.246Z,19.70
2023-02-20T09:15:56.276Z,19.73
2023-02-20T09:16:56.395Z,19.75
2023-02-20T09:17:56.375Z,19.78
2023-02-20T09:18:57.622Z,19.80
2023-02-20T09:19:56.483Z,19.83
2023-02-20T09:20:56.510Z,19.84
2023-02-20T09:21:56.554Z,19.86
2023-02-20T09:22:56.639Z,19.91
2023-02-20T09:23:56.686Z,19.95
2023-02-20T09:24:56.733Z,19.99
2023-02-20T09:25:56.685Z,20.01
2023-02-20T09:26:57.020Z,20.03
2023-02-20T09:27:56.735Z,20.02
2023-02-20T09:28:56.767Z,20.03
2023-02-20T09:29:56.786Z,20.01
2023-02-20T09:30:56.787Z,20.00
2023-02-20T09:31:56.908Z,19.99
2023-02-20T09:32:56.830Z,19.97
2023-02-20T09:34:56.781Z,19.95
2023-02-20T09:35:56.810Z,19.94
2023-02-20T09:36:56.724Z,19.94
2023-02-20T09:42:56.587Z,19.89
2023-02-20T09:43:56.592Z,19.89
2023-02-20T09:44:56.622Z,19.90
2023-02-20T09:45:56.758Z,19.88
2023-02-20T09:46:56.699Z,19.89
2023-02-20T09:47:56.725Z,19.88
2023-02-20T09:48:56.751Z,19.88
2023-02-20T09:49:56.789Z,19.88
2023-02-20T09:50:56.875Z,19.88
2023-02-20T10:05:57.311Z,19.88
2023-02-20T10:08:57.417Z,19.87
2023-02-20T10:10:57.468Z,19.87
2023-02-20T10:11:57.504Z,19.87
2023-02-20T10:13:57.583Z,19.87
2023-02-20T10:14:57.615Z,19.86
2023-02-20T10:15:57.686Z,19.88
2023-02-20T10:16:58.600Z,19.88
2023-02-20T10:17:58.471Z,19.90
2023-02-20T10:18:57.539Z,19.90
2023-02-20T10:19:57.520Z,19.93
2023-02-20T10:20:58.403Z,19.97
2023-02-20T10:21:57.550Z,20.01
2023-02-20T10:22:57.418Z,20.04
2023-02-20T10:24:05.532Z,20.05
2023-02-20T10:24:58.942Z,20.03
2023-02-20T10:25:57.318Z,19.99
2023-02-20T10:27:57.244Z,19.92
2023-02-20T10:28:58.009Z,19.90
2023-02-20T10:29:57.928Z,19.90
2023-02-20T10:30:57.188Z,19.90
2023-02-20T10:31:58.092Z,19.90
2023-02-20T10:32:57.091Z,19.90
2023-02-20T10:33:57.116Z,19.91
2023-02-20T10:34:57.210Z,19.92
2023-02-20T10:35:57.262Z,19.93
2023-02-20T10:36:57.199Z,19.94
2023-02-20T10:37:57.235Z,19.95
2023-02-20T10:38:57.307Z,19.95
2023-02-20T10:39:57.265Z,19.97
2023-02-20T10:40:57.300Z,19.97
2023-02-20T10:41:57.313Z,19.97
2023-02-20T10:42:57.350Z,19.97
2023-02-20T10:43:57.355Z,19.98
2023-02-20T10:44:57.369Z,19.98
2023-02-20T10:45:57.407Z,19.97
2023-02-20T10:46:57.489Z,19.98
2023-02-20T10:47:57.505Z,19.99
2023-02-20T10:48:57.448Z,20.02
2023-02-20T10:49:57.481Z,20.04
2023-02-20T10:50:57.474Z,20.05
2023-02-20T10:51:57.493Z,20.06
2023-02-20T10:52:57.523Z,20.07
2023-02-20T10:53:58.478Z,20.07
2023-02-20T10:54:58.401Z,20.06
2023-02-20T10:55:57.552Z,20.06
2023-02-20T10:56:58.480Z,20.05
2023-02-20T10:57:57.583Z,20.02
2023-02-20T10:58:57.598Z,20.02
2023-02-20T10:59:58.408Z,20.03
2023-02-20T11:00:57.627Z,20.03
2023-02-20T11:01:57.742Z,20.03
2023-02-20T11:02:57.700Z,20.03
2023-02-20T11:03:57.700Z,20.03
2023-02-20T11:04:58.397Z,20.03
2023-02-20T11:05:58.481Z,20.03
2023-02-20T11:06:57.801Z,20.03
2023-02-20T11:07:57.776Z,20.02
2023-02-20T11:08:57.782Z,20.01
2023-02-20T11:09:57.815Z,20.01
2023-02-20T11:10:57.827Z,20.00
2023-02-20T11:11:57.836Z,20.03
2023-02-20T11:12:57.881Z,20.04
2023-02-20T11:13:57.907Z,20.07
2023-02-20T11:14:57.935Z,20.09
2023-02-20T11:15:57.988Z,20.12
2023-02-20T11:16:58.993Z,20.15
2023-02-20T11:17:58.969Z,20.15
2023-02-20T11:18:58.030Z,20.17
2023-02-20T11:19:58.893Z,20.17
2023-02-20T11:20:58.035Z,20.16
2023-02-20T11:21:58.039Z,20.16
2023-02-20T11:22:58.968Z,20.15
2023-02-20T11:23:58.048Z,20.14
2023-02-20T11:24:58.044Z,20.12
2023-02-20T11:25:58.040Z,20.12
2023-02-20T11:26:58.087Z,20.11
2023-02-20T11:27:58.064Z,20.10
2023-02-20T11:28:58.076Z,20.08
2023-02-20T11:29:58.153Z,20.08
2023-02-20T11:30:58.154Z,20.06
2023-02-20T11:31:58.278Z,20.06
2023-02-20T11:32:58.146Z,20.06
2023-02-20T11:33:58.141Z,20.05
2023-02-20T11:34:58.159Z,20.04
2023-02-20T11:35:58.168Z,20.03
2023-02-20T11:36:58.194Z,20.02
2023-02-20T11:37:58.989Z,20.02
2023-02-20T11:38:58.973Z,20.02
2023-02-20T11:39:58.254Z,20.02
2023-02-20T11:40:58.241Z,20.02
2023-02-20T11:41:58.274Z,20.01
2023-02-20T11:42:58.286Z,20.02
2023-02-20T11:44:01.493Z,20.01
2023-02-20T11:44:58.360Z,20.02
2023-02-20T11:45:58.254Z,20.02
2023-02-20T11:46:58.236Z,20.01
2023-02-20T11:47:58.210Z,20.02
2023-02-20T11:48:58.214Z,20.02
2023-02-20T11:49:59.955Z,20.02
2023-02-20T11:50:58.095Z,20.01
2023-02-20T11:51:58.057Z,20.02
2023-02-20T11:52:59.041Z,20.01
2023-02-20T11:53:57.991Z,20.02
2023-02-20T11:54:57.954Z,20.01
2023-02-20T11:56:00.289Z,20.01
2023-02-20T11:56:57.983Z,20.01
2023-02-20T11:57:58.038Z,20.01
2023-02-20T11:58:57.990Z,20.00
2023-02-20T11:59:58.078Z,20.01
2023-02-20T12:00:58.039Z,20.01
2023-02-20T12:02:01.180Z,20.01
2023-02-20T12:02:58.060Z,20.01
2023-02-20T12:03:58.068Z,20.02
2023-02-20T12:04:58.945Z,20.02
2023-02-20T12:05:57.974Z,20.04
2023-02-20T12:06:57.862Z,20.04
2023-02-20T12:07:57.817Z,20.06
2023-02-20T12:08:57.786Z,20.05
2023-02-20T12:09:57.763Z,20.06
2023-02-20T12:10:57.709Z,20.07
2023-02-20T12:11:57.682Z,20.07
2023-02-20T12:12:57.656Z,20.08
2023-02-20T12:13:57.607Z,20.07
2023-02-20T12:14:57.580Z,20.07
2023-02-20T12:15:57.601Z,20.07
2023-02-20T12:16:57.577Z,20.06
2023-02-20T12:17:57.579Z,20.06
2023-02-20T12:18:57.586Z,20.06
2023-02-20T12:19:57.704Z,20.06
2023-02-20T12:20:57.608Z,20.06
2023-02-20T12:21:57.626Z,20.06
2023-02-20T12:22:57.628Z,20.07
2023-02-20T12:23:57.641Z,20.06
2023-02-20T12:24:57.642Z,20.06
2023-02-20T12:25:57.658Z,20.06
2023-02-20T12:27:57.686Z,20.06
2023-02-20T12:28:57.716Z,20.05
2023-02-20T12:29:57.731Z,20.06
2023-02-20T12:30:57.722Z,20.05
2023-02-20T12:31:57.874Z,20.05
2023-02-20T12:32:57.756Z,20.05
2023-02-20T12:33:57.775Z,20.06
2023-02-20T12:34:57.799Z,20.05
2023-02-20T12:35:57.861Z,20.05
2023-02-20T12:36:58.470Z,20.05
2023-02-20T12:37:57.876Z,20.05
2023-02-20T12:38:57.825Z,20.04
2023-02-20T12:40:57.854Z,20.05
2023-02-20T12:41:57.852Z,20.04
2023-02-20T12:48:57.954Z,20.03
2023-02-20T12:49:57.983Z,20.04
2023-02-20T12:50:57.994Z,20.04
2023-02-20T12:51:59.012Z,20.04
2023-02-20T12:52:57.991Z,20.04
2023-02-20T12:53:58.030Z,20.04
2023-02-20T12:54:59.015Z,20.04
2023-02-20T12:55:58.099Z,20.04
2023-02-20T12:56:59.436Z,20.05
2023-02-20T12:57:58.965Z,20.05
2023-02-20T12:58:58.107Z,20.06
2023-02-20T12:59:58.247Z,20.07
2023-02-20T13:00:58.179Z,20.07
2023-02-20T13:01:58.111Z,20.07
2023-02-20T13:03:58.232Z,20.07
2023-02-20T13:06:58.170Z,20.09
2023-02-20T13:07:58.186Z,20.10
2023-02-20T13:08:58.196Z,20.11
2023-02-20T13:09:59.046Z,20.10
2023-02-20T13:10:58.221Z,20.09
2023-02-20T13:11:58.242Z,20.08
2023-02-20T13:12:58.264Z,20.07
2023-02-20T13:13:58.269Z,20.06
2023-02-20T13:14:58.279Z,20.05
2023-02-20T13:15:58.388Z,20.04
2023-02-20T13:16:58.334Z,20.04
2023-02-20T13:17:58.341Z,20.03
2023-02-20T13:18:58.367Z,20.03
2023-02-20T13:19:58.386Z,20.04
2023-02-20T13:20:58.397Z,20.02
2023-02-20T13:21:58.412Z,20.03
2023-02-20T13:22:58.438Z,20.03
2023-02-20T13:23:58.443Z,20.03
2023-02-20T13:24:58.462Z,20.04
2023-02-20T13:25:58.485Z,20.04
2023-02-20T13:26:58.498Z,20.05
2023-02-20T13:27:58.512Z,20.04
2023-02-20T13:28:58.544Z,20.04
2023-02-20T13:29:59.476Z,20.03
2023-02-20T13:30:58.570Z,20.03
2023-02-20T13:31:58.689Z,20.03
2023-02-20T13:32:58.600Z,20.03
2023-02-20T13:33:58.615Z,20.03
2023-02-20T13:34:58.631Z,20.03
2023-02-20T13:35:58.648Z,20.03
2023-02-20T13:36:58.670Z,20.03
2023-02-20T13:37:58.684Z,20.03
2023-02-20T13:38:58.694Z,20.03
2023-02-20T13:39:58.711Z,20.03
2023-02-20T13:40:58.722Z,20.03
2023-02-20T13:41:58.745Z,20.04
2023-02-20T13:42:58.753Z,20.04
2023-02-20T13:43:58.760Z,20.03
2023-02-20T13:44:59.466Z,20.04
2023-02-20T13:45:58.823Z,20.04
2023-02-20T13:46:58.825Z,20.04
2023-02-20T13:47:58.817Z,20.04
2023-02-20T13:48:58.828Z,20.04
2023-02-20T13:49:59.345Z,20.04
2023-02-20T13:50:58.850Z,20.04
2023-02-20T13:51:58.869Z,20.05
2023-02-20T13:52:58.900Z,20.05
2023-02-20T13:53:58.903Z,20.05
2023-02-20T13:54:58.900Z,20.04
2023-02-20T13:55:58.926Z,20.04
2023-02-20T13:56:58.935Z,20.04
2023-02-20T13:57:59.011Z,20.04
2023-02-20T13:58:58.964Z,20.02
2023-02-20T13:59:59.004Z,20.02
2023-02-20T14:00:59.039Z,20.03
2023-02-20T14:01:59.048Z,20.02
2023-02-20T14:02:59.077Z,20.01
2023-02-20T14:03:59.062Z,20.02
2023-02-20T14:05:00.078Z,20.01
2023-02-20T14:05:59.099Z,19.99
2023-02-20T14:06:59.469Z,19.99
2023-02-20T14:07:59.152Z,19.97
2023-02-20T14:08:59.156Z,19.99
2023-02-20T14:09:59.171Z,20.00
2023-02-20T14:33:59.553Z,19.98
2023-02-20T14:35:59.590Z,19.98
2023-02-20T14:36:59.610Z,19.96
2023-02-20T14:37:59.653Z,19.97
2023-02-20T14:38:59.728Z,19.96
2023-02-20T14:39:59.740Z,19.95
2023-02-20T14:41:01.402Z,19.94
2023-02-20T14:41:59.727Z,19.94
2023-02-20T14:42:59.742Z,19.94
2023-02-20T14:43:59.784Z,19.93
2023-02-20T14:44:59.788Z,19.94
2023-02-20T14:46:59.825Z,19.94
2023-02-20T14:47:59.849Z,19.95
2023-02-20T14:48:59.860Z,19.95
2023-02-20T14:49:59.885Z,19.96
2023-02-20T14:50:59.973Z,19.95
2023-02-20T14:51:59.922Z,19.94
2023-02-20T14:52:59.948Z,19.93
2023-02-20T14:53:59.985Z,19.90
2023-02-20T18:20:06.937Z,19.80
2023-02-20T18:23:06.443Z,19.80
2023-02-20T18:25:06.263Z,19.80
2023-02-20T18:26:06.298Z,19.79
2023-02-20T18:27:06.330Z,19.79
2023-02-20T18:28:06.385Z,19.79
2023-02-20T18:29:06.943Z,19.79
2023-02-20T18:30:06.519Z,19.79
2023-02-20T18:31:06.561Z,19.79
2023-02-20T18:32:06.615Z,19.79
2023-02-20T18:33:06.567Z,19.79
2023-02-20T18:34:06.604Z,19.79
2023-02-20T18:35:06.628Z,19.79
2023-02-20T18:36:08.595Z,19.79
2023-02-20T18:37:06.709Z,19.78
2023-02-20T18:38:06.742Z,19.79
2023-02-20T18:39:06.772Z,19.79
2023-02-20T18:40:06.820Z,19.79
2023-02-20T18:41:06.851Z,19.79
2023-02-20T18:42:06.878Z,19.79
2023-02-20T18:43:06.976Z,19.78
2023-02-20T18:44:06.971Z,19.79
2023-02-20T18:45:07.013Z,19.79
2023-02-20T18:46:07.157Z,19.79
2023-02-20T18:47:07.091Z,19.79
2023-02-20T18:48:07.142Z,19.78
2023-02-20T18:49:07.179Z,19.79
2023-02-20T18:50:07.220Z,19.78
2023-02-20T18:51:07.255Z,19.78
2023-02-20T18:52:07.324Z,19.78
2023-02-20T18:53:07.339Z,19.78
2023-02-20T18:54:07.384Z,19.78
2023-02-20T18:55:07.420Z,19.78
2023-02-20T18:56:07.460Z,19.77
2023-02-20T18:57:07.507Z,19.78
2023-02-20T18:58:07.559Z,19.78
2023-02-20T18:59:07.592Z,19.78
2023-02-20T19:00:07.650Z,19.78
2023-02-20T19:01:07.718Z,19.78
2023-02-20T19:02:07.759Z,19.77
2023-02-20T19:03:07.759Z,19.77
2023-02-20T19:04:07.821Z,19.77
2023-02-20T19:05:07.866Z,19.78
2023-02-20T19:06:07.899Z,19.77
2023-02-20T19:07:07.922Z,19.77
2023-02-20T19:08:08.002Z,19.77
2023-02-20T19:09:08.027Z,19.77
2023-02-20T19:10:08.058Z,19.77
2023-02-20T19:11:08.255Z,19.77
2023-02-20T19:12:08.200Z,19.77
2023-02-20T19:13:08.257Z,19.78
2023-02-20T19:14:08.239Z,19.78
2023-02-20T19:15:08.297Z,19.77
2023-02-20T19:16:08.343Z,19.78
2023-02-20T19:17:08.385Z,19.77
2023-02-20T19:18:08.412Z,19.77
2023-02-20T19:19:08.943Z,19.78
2023-02-20T19:20:08.494Z,19.77
2023-02-20T19:21:08.545Z,19.77
2023-02-20T19:22:08.587Z,19.77
2023-02-20T19:23:08.696Z,19.76
2023-02-20T19:24:08.674Z,19.76
2023-02-20T19:25:08.755Z,19.77
2023-02-20T19:26:08.737Z,19.77
2023-02-20T19:27:08.800Z,19.77
2023-02-20T19:28:08.819Z,19.77
2023-02-20T19:29:08.943Z,19.76
2023-02-20T19:30:08.975Z,19.76
2023-02-20T19:31:09.047Z,19.75
2023-02-20T19:32:09.114Z,19.76
2023-02-20T19:33:09.056Z,19.76
2023-02-20T19:34:09.197Z,19.76
2023-02-20T19:35:09.216Z,19.76
2023-02-20T19:36:10.504Z,19.76
2023-02-20T19:37:09.253Z,19.76
2023-02-20T19:38:09.328Z,19.76
2023-02-20T19:39:09.446Z,19.75
2023-02-20T19:40:09.373Z,19.76
2023-02-20T19:41:09.418Z,19.76
2023-02-20T19:42:09.465Z,19.75
2023-02-20T19:43:09.507Z,19.76
2023-02-20T19:44:09.537Z,19.75
2023-02-20T19:45:09.591Z,19.76
2023-02-20T19:46:09.668Z,19.76
2023-02-20T19:47:09.691Z,19.76
2023-02-20T19:48:09.741Z,19.76
2023-02-20T19:49:09.793Z,19.75
2023-02-20T19:50:09.890Z,19.75
2023-02-20T19:51:09.874Z,19.75
2023-02-20T19:52:09.918Z,19.74
2023-02-20T19:53:09.968Z,19.75
2023-02-20T19:54:10.016Z,19.75
2023-02-20T19:55:10.057Z,19.75
2023-02-20T19:56:10.106Z,19.75
2023-02-20T19:57:10.169Z,19.74
2023-02-20T19:58:10.212Z,19.74
2023-02-20T19:59:10.249Z,19.75
2023-02-20T20:00:10.313Z,19.75
2023-02-20T20:01:10.375Z,19.75
2023-02-20T20:02:10.408Z,19.74
2023-02-20T20:03:10.427Z,19.74
2023-02-20T20:04:10.476Z,19.74
2023-02-20T20:05:10.534Z,19.74
2023-02-20T20:06:10.773Z,19.74
2023-02-20T20:07:10.612Z,19.74
2023-02-20T20:08:10.652Z,19.74
2023-02-20T20:09:16.673Z,19.74
2023-02-20T20:10:11.688Z,19.74
2023-02-20T20:11:10.642Z,19.74
2023-02-20T20:12:10.622Z,19.74
2023-02-20T20:13:10.688Z,19.75
2023-02-20T20:14:10.568Z,19.75
2023-02-20T20:15:10.535Z,19.75
2023-02-20T20:16:10.575Z,19.75
2023-02-20T20:17:10.527Z,19.76
2023-02-20T20:18:10.566Z,19.75
2023-02-20T20:19:10.693Z,19.75
2023-02-20T20:20:10.663Z,19.75
2023-02-20T20:21:11.428Z,19.76
2023-02-20T20:22:10.747Z,19.76
2023-02-20T20:23:10.793Z,19.76
2023-02-20T20:24:10.826Z,19.76
2023-02-20T20:25:10.972Z,19.75
2023-02-20T20:26:10.889Z,19.76
2023-02-20T20:27:10.925Z,19.76
2023-02-20T20:28:10.977Z,19.76
2023-02-20T20:29:11.013Z,19.76
2023-02-20T20:30:11.067Z,19.76
2023-02-20T20:31:11.218Z,19.76
2023-02-20T20:32:11.190Z,19.75
2023-02-20T20:33:11.194Z,19.75
2023-02-20T20:34:11.305Z,19.76
2023-02-20T20:35:11.277Z,19.75
2023-02-20T20:36:11.328Z,19.75
2023-02-20T20:37:11.364Z,19.75
2023-02-20T20:38:11.409Z,19.75
2023-02-20T20:39:11.586Z,19.76
2023-02-20T20:40:12.426Z,19.75
2023-02-20T20:41:11.853Z,19.76
2023-02-20T20:42:11.554Z,19.76
2023-02-20T20:43:11.585Z,19.76
2023-02-20T20:44:11.636Z,19.75
2023-02-20T20:45:11.690Z,19.75
2023-02-20T20:46:11.771Z,19.74
2023-02-20T20:47:11.840Z,19.75
2023-02-20T20:48:11.822Z,19.74
2023-02-20T20:49:11.838Z,19.73
2023-02-20T20:50:11.890Z,19.74
2023-02-20T20:51:12.330Z,19.74
2023-02-20T20:52:11.917Z,19.74
2023-02-20T20:53:11.950Z,19.74
2023-02-20T20:54:11.999Z,19.74
2023-02-20T20:55:12.026Z,19.74
2023-02-20T20:56:12.073Z,19.74
2023-02-20T20:57:12.116Z,19.74
2023-02-20T20:58:12.163Z,19.75
2023-02-20T20:59:12.228Z,19.75
2023-02-20T21:00:12.325Z,19.75
2023-02-20T21:01:13.376Z,19.75
2023-02-20T21:02:12.340Z,19.75
2023-02-20T21:03:12.420Z,19.75
2023-02-20T21:04:12.411Z,19.74
2023-02-20T21:05:12.456Z,19.74
2023-02-20T21:06:12.485Z,19.75
2023-02-20T21:07:12.583Z,19.74
2023-02-20T21:08:12.582Z,19.75
2023-02-20T21:09:12.625Z,19.74
2023-02-20T21:10:12.662Z,19.74
2023-02-20T21:11:13.129Z,19.75
2023-02-20T21:12:12.744Z,19.74
2023-02-20T21:13:12.785Z,19.75
2023-02-20T21:14:12.828Z,19.75
2023-02-20T21:15:12.863Z,19.75